createdAt,value
2017-12-27T00:02:23.287Z,100276.50
2017-12-27T00:07:38.172Z,100284.95
2017-12-27T00:10:14.337Z,100285.37
2017-12-27T00:12:49.071Z,100282.41
2017-12-27T00:15:37.720Z,100279.88
2017-12-27T00:18:12.956Z,100279.03
2017-12-27T00:21:00.384Z,100281.57
2017-12-27T00:23:35.012Z,100281.58
2017-12-27T00:26:11.486Z,100281.13
2017-12-27T00:28:46.105Z,100279.88
2017-12-27T00:31:18.686Z,100282.42
2017-12-27T00:33:47.781Z,100280.30
2017-12-27T00:36:16.878Z,100281.14
2017-12-27T00:38:52.839Z,100287.91
2017-12-27T00:41:23.566Z,100284.09
2017-12-27T00:43:54.304Z,100278.19
2017-12-27T00:46:24.609Z,100283.25
2017-12-27T00:48:53.568Z,100281.14
2017-12-27T00:51:25.276Z,100284.95
2017-12-27T00:53:55.422Z,100287.91
2017-12-27T00:56:24.507Z,100276.92
2017-12-27T00:58:53.728Z,100282.84
2017-12-27T01:01:23.076Z,100288.33
2017-12-27T01:03:52.029Z,100294.67
2017-12-27T01:06:23.730Z,100291.70
2017-12-27T01:08:52.745Z,100290.45
2017-12-27T01:11:23.471Z,100287.48
2017-12-27T01:13:56.771Z,100287.06
2017-12-27T01:16:25.656Z,100285.80
2017-12-27T01:18:55.657Z,100271.02
2017-12-27T01:21:26.506Z,100269.32
2017-12-27T01:23:56.645Z,100266.36
2017-12-27T01:26:26.354Z,100268.05
2017-12-27T01:28:57.922Z,100263.39
2017-12-27T01:31:26.945Z,100255.78
2017-12-27T01:33:55.824Z,100250.72
2017-12-27T01:36:26.632Z,100260.00
2017-12-27T01:38:58.395Z,100259.16
2017-12-27T01:41:30.264Z,100254.94
2017-12-27T01:44:01.196Z,100254.12
2017-12-27T01:46:30.420Z,100250.30
2017-12-27T01:49:05.420Z,100254.52
2017-12-27T01:51:34.760Z,100240.58
2017-12-27T01:54:04.882Z,100246.06
2017-12-27T01:59:08.183Z,100252.42
2017-12-27T02:01:37.129Z,100249.04
2017-12-27T02:04:06.786Z,100249.04
2017-12-27T02:06:35.702Z,100254.95
2017-12-27T02:09:04.978Z,100245.23
2017-12-27T02:11:34.451Z,100254.95
2017-12-27T02:14:03.601Z,100251.98
2017-12-27T02:16:32.718Z,100253.69
2017-12-27T02:19:01.682Z,100249.45
2017-12-27T02:21:31.651Z,100253.67
2017-12-27T02:24:00.893Z,100248.17
2017-12-27T02:26:29.946Z,100256.64
2017-12-27T02:28:58.951Z,100254.52
2017-12-27T02:31:29.580Z,100246.50
2017-12-27T02:33:59.494Z,100239.75
2017-12-27T02:36:28.586Z,100235.95
2017-12-27T02:38:57.994Z,100243.11
2017-12-27T02:41:26.984Z,100244.37
2017-12-27T02:43:56.451Z,100234.65
2017-12-27T02:46:25.381Z,100239.33
2017-12-27T02:48:57.961Z,100234.23
2017-12-27T02:51:27.089Z,100231.30
2017-12-27T02:53:57.927Z,100228.32
2017-12-27T02:56:26.798Z,100228.30
2017-12-27T02:58:55.687Z,100234.23
2017-12-27T03:01:25.493Z,100226.60
2017-12-27T03:03:55.413Z,100221.52
2017-12-27T03:06:24.392Z,100224.91
2017-12-27T03:08:53.549Z,100229.58
2017-12-27T03:11:23.477Z,100232.12
2017-12-27T03:13:52.399Z,100225.35
2017-12-27T03:16:21.502Z,100228.73
2017-12-27T03:18:50.627Z,100227.02
2017-12-27T03:21:19.592Z,100224.48
2017-12-27T03:23:48.447Z,100221.96
2017-12-27T03:26:20.842Z,100219.00
2017-12-27T03:28:49.747Z,100219.86
2017-12-27T03:31:19.445Z,100219.85
2017-12-27T03:33:48.444Z,100229.58
2017-12-27T03:36:17.575Z,100227.03
2017-12-27T03:38:47.460Z,100224.91
2017-12-27T03:41:17.304Z,100224.48
2017-12-27T03:43:47.174Z,100224.06
2017-12-27T03:46:16.803Z,100227.03
2017-12-27T03:51:21.323Z,100226.61
2017-12-27T03:53:50.330Z,100222.81
2017-12-27T03:56:19.364Z,100216.92
2017-12-27T03:58:48.472Z,100217.75
2017-12-27T04:01:18.133Z,100222.40
2017-12-27T04:03:47.330Z,100221.56
2017-12-27T04:06:16.222Z,100226.64
2017-12-27T04:08:46.241Z,100227.89
2017-12-27T04:11:16.203Z,100228.75
2017-12-27T04:13:45.477Z,100232.98
2017-12-27T04:16:14.497Z,100229.17
2017-12-27T04:18:43.486Z,100234.25
2017-12-27T04:21:12.585Z,100237.19
2017-12-27T04:23:41.586Z,100230.44
2017-12-27T04:26:10.666Z,100244.37
2017-12-27T04:28:40.406Z,100237.63
2017-12-27T04:31:09.412Z,100241.44
2017-12-27T04:33:41.400Z,100238.46
2017-12-27T04:36:10.537Z,100241.42
2017-12-27T04:38:39.633Z,100241.01
2017-12-27T04:41:08.696Z,100241.44
2017-12-27T04:43:41.381Z,100243.54
2017-12-27T04:46:11.400Z,100247.34
2017-12-27T04:48:41.136Z,100239.73
2017-12-27T04:51:10.342Z,100242.25
2017-12-27T04:53:39.431Z,100232.95
2017-12-27T04:56:08.424Z,100237.59
2017-12-27T04:58:37.341Z,100235.92
2017-12-27T05:01:06.380Z,100237.60
2017-12-27T05:03:35.575Z,100231.69
2017-12-27T05:06:04.573Z,100221.97
2017-12-27T05:08:33.668Z,100237.59
2017-12-27T05:11:03.512Z,100230.01
2017-12-27T05:13:32.628Z,100236.75
2017-12-27T05:16:03.373Z,100231.27
2017-12-27T05:18:32.352Z,100230.84
2017-12-27T05:21:01.651Z,100231.69
2017-12-27T05:23:31.467Z,100227.04
2017-12-27T05:26:00.412Z,100219.44
2017-12-27T05:28:30.250Z,100217.75
2017-12-27T05:31:01.165Z,100221.97
2017-12-27T05:33:30.164Z,100227.05
2017-12-27T05:35:59.150Z,100224.05
2017-12-27T05:38:28.145Z,100229.11
2017-12-27T05:40:57.045Z,100232.48
2017-12-27T05:43:25.977Z,100236.70
2017-12-27T05:45:57.686Z,100240.08
2017-12-27T05:48:26.693Z,100243.91
2017-12-27T05:50:55.775Z,100252.35
2017-12-27T05:53:27.204Z,100251.92
2017-12-27T05:55:56.225Z,100247.27
2017-12-27T05:58:25.214Z,100254.45
2017-12-27T06:00:59.249Z,100254.47
2017-12-27T06:03:29.090Z,100256.17
2017-12-27T06:05:58.070Z,100252.36
2017-12-27T06:08:26.963Z,100262.09
2017-12-27T06:10:55.929Z,100257.43
2017-12-27T06:13:25.017Z,100265.02
2017-12-27T06:15:54.769Z,100264.58
2017-12-27T06:18:26.487Z,100264.15
2017-12-27T06:20:55.581Z,100265.00
2017-12-27T06:23:25.369Z,100267.09
2017-12-27T06:25:55.409Z,100270.02
2017-12-27T06:28:25.271Z,100275.09
2017-12-27T06:30:54.361Z,100279.71
2017-12-27T06:33:24.592Z,100290.72
2017-12-27T06:35:53.632Z,100281.95
2017-12-27T06:38:22.527Z,100287.48
2017-12-27T06:40:52.246Z,100294.66
2017-12-27T06:43:21.335Z,100297.59
2017-12-27T06:45:51.151Z,100296.33
2017-12-27T06:48:20.236Z,100300.98
2017-12-27T06:50:50.080Z,100294.64
2017-12-27T06:53:19.980Z,100291.29
2017-12-27T06:55:50.016Z,100292.15
2017-12-27T06:58:18.895Z,100283.23
2017-12-27T07:00:48.773Z,100275.59
2017-12-27T07:03:17.924Z,100272.98
2017-12-27T07:05:48.761Z,100274.64
2017-12-27T07:08:20.613Z,100271.64
2017-12-27T07:10:49.640Z,100274.94
2017-12-27T07:13:18.713Z,100280.39
2017-12-27T07:15:47.642Z,100271.47
2017-12-27T07:20:52.837Z,100276.88
2017-12-27T07:23:21.840Z,100273.86
2017-12-27T07:25:51.663Z,100278.90
2017-12-27T07:28:20.663Z,100275.51
2017-12-27T07:30:51.495Z,100277.13
2017-12-27T07:33:20.956Z,100277.11
2017-12-27T07:35:50.093Z,100274.94
2017-12-27T07:38:19.912Z,100274.50
2017-12-27T07:40:48.960Z,100271.89
2017-12-27T07:43:17.895Z,100273.57
2017-12-27T07:45:47.743Z,100279.54
2017-12-27T07:48:19.667Z,100274.84
2017-12-27T07:50:48.665Z,100273.95
2017-12-27T07:53:17.560Z,100275.60
2017-12-27T07:55:48.781Z,100270.87
2017-12-27T07:58:18.521Z,100270.84
2017-12-27T08:00:47.619Z,100268.23
2017-12-27T08:05:50.997Z,100268.93
2017-12-27T08:08:20.753Z,100270.59
2017-12-27T08:10:50.740Z,100271.38
2017-12-27T08:13:19.880Z,100276.81
2017-12-27T08:15:48.924Z,100286.89
2017-12-27T08:18:18.637Z,100292.38
2017-12-27T08:20:47.876Z,100291.03
2017-12-27T08:23:17.687Z,100294.11
2017-12-27T08:25:49.303Z,100300.68
2017-12-27T08:28:19.108Z,100300.47
2017-12-27T08:30:49.753Z,100304.86
2017-12-27T08:33:18.679Z,100310.48
2017-12-27T08:35:47.603Z,100305.79
2017-12-27T08:38:16.666Z,100304.50
2017-12-27T08:40:46.504Z,100307.92
2017-12-27T08:43:15.438Z,100291.70
2017-12-27T08:45:44.841Z,100293.28
2017-12-27T08:48:14.439Z,100286.46
2017-12-27T08:50:43.540Z,100285.41
2017-12-27T08:53:12.724Z,100283.59
2017-12-27T08:55:44.910Z,100281.41
2017-12-27T08:58:13.918Z,100275.06
2017-12-27T09:00:42.925Z,100278.77
2017-12-27T09:03:12.730Z,100273.11
2017-12-27T09:05:41.903Z,100273.89
2017-12-27T09:08:11.072Z,100268.32
2017-12-27T09:10:40.222Z,100263.58
2017-12-27T09:13:10.177Z,100268.13
2017-12-27T09:15:39.793Z,100262.88
2017-12-27T09:18:12.953Z,100265.29
2017-12-27T09:20:42.054Z,100259.23
2017-12-27T09:23:11.102Z,100254.50
2017-12-27T09:25:40.193Z,100254.73
2017-12-27T09:28:09.098Z,100256.34
2017-12-27T09:30:39.018Z,100247.05
2017-12-27T09:33:08.079Z,100242.79
2017-12-27T09:35:37.780Z,100232.55
2017-12-27T09:38:06.672Z,100228.70
2017-12-27T09:40:35.799Z,100226.46
2017-12-27T09:43:07.320Z,100218.39
2017-12-27T09:45:40.104Z,100216.44
2017-12-27T09:48:09.099Z,100213.87
2017-12-27T09:50:38.601Z,100206.04
2017-12-27T09:53:07.804Z,100203.87
2017-12-27T09:55:36.900Z,100196.55
2017-12-27T09:58:05.766Z,100196.89
2017-12-27T10:00:39.548Z,100197.10
2017-12-27T10:03:08.624Z,100192.41
2017-12-27T10:05:37.580Z,100184.20
2017-12-27T10:08:07.373Z,100181.30
2017-12-27T10:10:36.230Z,100176.80
2017-12-27T10:13:05.258Z,100173.69
2017-12-27T10:15:39.807Z,100168.48
2017-12-27T10:18:09.002Z,100168.69
2017-12-27T10:20:37.889Z,100158.14
2017-12-27T10:23:09.613Z,100166.14
2017-12-27T10:25:39.560Z,100164.06
2017-12-27T10:28:09.936Z,100154.92
2017-12-27T10:30:39.042Z,100155.53
2017-12-27T10:33:07.921Z,100157.70
2017-12-27T10:35:37.012Z,100149.06
2017-12-27T10:38:06.070Z,100138.75
2017-12-27T10:40:38.515Z,100130.65
2017-12-27T10:43:15.312Z,100127.67
2017-12-27T10:45:45.117Z,100122.78
2017-12-27T10:48:14.109Z,100123.13
2017-12-27T10:50:44.130Z,100122.23
2017-12-27T10:53:14.147Z,100123.02
2017-12-27T10:55:43.241Z,100116.58
2017-12-27T10:58:14.144Z,100125.52
2017-12-27T11:00:43.891Z,100118.39
2017-12-27T11:03:15.583Z,100112.34
2017-12-27T11:05:44.573Z,100124.59
2017-12-27T11:08:14.554Z,100124.51
2017-12-27T11:10:43.764Z,100116.75
2017-12-27T11:13:14.082Z,100118.80
2017-12-27T11:15:43.075Z,100108.19
2017-12-27T11:18:13.952Z,100101.08
2017-12-27T11:20:42.942Z,100100.03
2017-12-27T11:23:12.011Z,100094.87
2017-12-27T11:25:41.442Z,100092.20
2017-12-27T11:28:10.603Z,100086.06
2017-12-27T11:30:40.047Z,100084.91
2017-12-27T11:33:10.947Z,100085.60
2017-12-27T11:35:41.766Z,100077.86
2017-12-27T11:38:14.342Z,100073.53
2017-12-27T11:40:43.337Z,100070.05
2017-12-27T11:43:13.202Z,100074.59
2017-12-27T11:48:17.131Z,100063.87
2017-12-27T11:50:47.262Z,100064.11
2017-12-27T11:53:17.369Z,100060.78
2017-12-27T11:55:47.330Z,100044.80
2017-12-27T11:58:17.960Z,100048.98
2017-12-27T12:00:51.703Z,100039.52
2017-12-27T12:03:20.725Z,100037.83
2017-12-27T12:08:28.632Z,100036.81
2017-12-27T12:10:58.320Z,100043.98
2017-12-27T12:13:28.293Z,100044.04
2017-12-27T12:15:59.068Z,100039.85
2017-12-27T12:18:31.132Z,100035.19
2017-12-27T12:21:00.172Z,100031.27
2017-12-27T12:23:30.153Z,100033.01
2017-12-27T12:26:02.789Z,100033.42
2017-12-27T12:28:33.354Z,100041.30
2017-12-27T12:31:03.372Z,100045.02
2017-12-27T12:33:34.182Z,100042.59
2017-12-27T12:36:03.646Z,100046.33
2017-12-27T12:38:32.702Z,100043.08
2017-12-27T12:41:01.741Z,100035.52
2017-12-27T12:43:32.926Z,100041.86
2017-12-27T12:46:01.944Z,100040.30
2017-12-27T12:48:31.961Z,100040.02
2017-12-27T12:51:01.874Z,100041.66
2017-12-27T12:53:31.644Z,100037.37
2017-12-27T12:56:01.091Z,100033.55
2017-12-27T12:58:29.989Z,100038.65
2017-12-27T13:00:59.955Z,100037.55
2017-12-27T13:03:28.963Z,100037.02
2017-12-27T13:05:58.025Z,100045.02
2017-12-27T13:08:26.953Z,100050.36
2017-12-27T13:10:56.049Z,100054.16
2017-12-27T13:13:25.344Z,100053.28
2017-12-27T13:15:55.393Z,100043.73
2017-12-27T13:18:24.391Z,100051.84
2017-12-27T13:20:53.366Z,100051.75
2017-12-27T13:23:23.942Z,100044.23
2017-12-27T13:25:52.982Z,100046.38
2017-12-27T13:28:22.172Z,100040.44
2017-12-27T13:30:52.907Z,100041.02
2017-12-27T13:33:22.738Z,100037.44
2017-12-27T13:35:52.329Z,100035.47
2017-12-27T13:40:55.543Z,100037.78
2017-12-27T13:43:24.852Z,100039.94
2017-12-27T13:45:54.376Z,100048.20
2017-12-27T13:48:27.581Z,100042.12
2017-12-27T13:50:57.896Z,100041.77
2017-12-27T13:53:27.033Z,100050.84
2017-12-27T13:55:56.900Z,100050.08
2017-12-27T13:58:26.890Z,100043.75
2017-12-27T14:00:56.781Z,100040.41
2017-12-27T14:03:30.091Z,100034.98
2017-12-27T14:05:59.179Z,100036.31
2017-12-27T14:08:29.866Z,100039.02
2017-12-27T14:11:01.988Z,100027.58
2017-12-27T14:13:31.194Z,100023.73
2017-12-27T14:16:00.155Z,100025.95
2017-12-27T14:18:33.067Z,100020.94
2017-12-27T14:21:02.064Z,100020.67
2017-12-27T14:23:32.080Z,100016.16
2017-12-27T14:26:02.190Z,100017.93
2017-12-27T14:28:32.108Z,100016.33
2017-12-27T14:31:01.108Z,100011.34
2017-12-27T14:33:30.307Z,100012.66
2017-12-27T14:35:59.448Z,100019.25
2017-12-27T14:38:28.393Z,100015.53
2017-12-27T14:40:58.618Z,100021.20
2017-12-27T14:43:27.652Z,100010.66
2017-12-27T14:45:58.447Z,100010.86
2017-12-27T14:48:27.967Z,100008.34
2017-12-27T14:50:57.152Z,100006.43
2017-12-27T14:53:26.147Z,100005.16
2017-12-27T14:55:56.115Z,100016.86
2017-12-27T14:58:25.171Z,100015.59
2017-12-27T15:00:57.053Z,100011.11
2017-12-27T15:03:26.009Z,100013.30
2017-12-27T15:05:54.946Z,100011.23
2017-12-27T15:10:59.665Z,100011.08
2017-12-27T15:13:29.565Z,100017.51
2017-12-27T15:16:00.377Z,100012.20
2017-12-27T15:18:29.356Z,100017.75
2017-12-27T15:20:58.304Z,100028.06
2017-12-27T15:23:28.258Z,100026.05
2017-12-27T15:25:57.179Z,100029.50
2017-12-27T15:28:27.283Z,100030.41
2017-12-27T15:30:56.349Z,100016.97
2017-12-27T15:33:25.499Z,100027.62
2017-12-27T15:35:54.470Z,100021.34
2017-12-27T15:38:24.445Z,100032.46
2017-12-27T15:40:54.462Z,100033.72
2017-12-27T15:43:23.344Z,100035.44
2017-12-27T15:45:57.160Z,100032.52
2017-12-27T15:48:27.383Z,100035.22
2017-12-27T15:51:03.028Z,100036.68
2017-12-27T15:53:32.023Z,100032.05
2017-12-27T15:56:01.189Z,100028.72
2017-12-27T15:58:34.008Z,100020.75
2017-12-27T16:01:03.954Z,100024.59
2017-12-27T16:03:32.915Z,100027.20
2017-12-27T16:06:02.518Z,100023.37
2017-12-27T16:08:32.642Z,100018.77
2017-12-27T16:11:05.322Z,100017.52
2017-12-27T16:13:34.320Z,100020.52
2017-12-27T16:16:03.262Z,100021.00
2017-12-27T16:18:33.325Z,100019.74
2017-12-27T16:21:03.282Z,100025.20
2017-12-27T16:23:34.109Z,100029.78
2017-12-27T16:26:04.057Z,100031.37
2017-12-27T16:28:36.266Z,100037.71
2017-12-27T16:31:05.500Z,100036.50
2017-12-27T16:33:35.379Z,100027.23
2017-12-27T16:36:05.164Z,100027.20
2017-12-27T16:38:34.294Z,100026.41
2017-12-27T16:41:03.295Z,100022.23
2017-12-27T16:43:33.090Z,100029.91
2017-12-27T16:46:10.360Z,100030.80
2017-12-27T16:48:39.525Z,100030.34
2017-12-27T16:51:08.575Z,100037.94
2017-12-27T16:53:38.588Z,100035.90
2017-12-27T16:56:08.783Z,100031.19
2017-12-27T16:58:37.921Z,100030.76
2017-12-27T17:01:07.987Z,100032.03
2017-12-27T17:03:37.073Z,100027.42
2017-12-27T17:06:07.022Z,100032.95
2017-12-27T17:08:36.077Z,100025.84
2017-12-27T17:11:05.052Z,100019.53
2017-12-27T17:13:34.072Z,100009.41
2017-12-27T17:16:03.128Z,100016.16
2017-12-27T17:21:07.183Z,100002.27
2017-12-27T17:23:37.266Z,100007.75
2017-12-27T17:28:42.736Z,100006.12
2017-12-27T17:31:12.901Z,100002.31
2017-12-27T17:33:41.886Z,100008.22
2017-12-27T17:36:10.770Z,100007.86
2017-12-27T17:38:39.730Z,100014.22
2017-12-27T17:41:11.379Z,100009.99
2017-12-27T17:43:40.560Z,100006.16
2017-12-27T17:46:09.478Z,100007.88
2017-12-27T17:48:38.474Z,100001.55
2017-12-27T17:51:07.570Z,100008.34
2017-12-27T17:53:37.208Z,100007.97
2017-12-27T17:56:11.662Z,100008.81
2017-12-27T17:58:40.723Z,99999.09
2017-12-27T18:01:09.788Z,100007.59
2017-12-27T18:03:39.635Z,100008.00
2017-12-27T18:06:08.697Z,100005.05
2017-12-27T18:08:37.692Z,100015.62
2017-12-27T18:11:06.697Z,100004.61
2017-12-27T18:13:35.861Z,100000.00
2017-12-27T18:16:04.981Z,100010.20
2017-12-27T18:18:34.066Z,100008.11
2017-12-27T18:21:03.246Z,99998.45
2017-12-27T18:23:32.332Z,99998.02
2017-12-27T18:26:01.361Z,99994.22
2017-12-27T18:28:30.285Z,99995.09
2017-12-27T18:30:59.279Z,99990.45
2017-12-27T18:33:29.143Z,99993.02
2017-12-27T18:35:59.696Z,99992.20
2017-12-27T18:38:28.619Z,99995.15
2017-12-27T18:43:32.203Z,99996.42
2017-12-27T18:46:01.010Z,99985.02
2017-12-27T18:48:30.909Z,99985.00
2017-12-27T18:51:00.041Z,99983.73
2017-12-27T18:53:29.033Z,99984.17
2017-12-27T18:56:03.729Z,99985.45
2017-12-27T18:58:32.869Z,99981.20
2017-12-27T19:01:01.963Z,99977.03
2017-12-27T19:03:31.042Z,99974.92
2017-12-27T19:06:01.668Z,99975.75
2017-12-27T19:08:30.736Z,99971.54
2017-12-27T19:10:59.869Z,99983.38
2017-12-27T19:13:28.935Z,99993.47
2017-12-27T19:15:58.027Z,99994.33
2017-12-27T19:18:27.127Z,99995.61
2017-12-27T19:20:56.064Z,100000.67
2017-12-27T19:23:25.121Z,99993.92
2017-12-27T19:25:58.510Z,99993.92
2017-12-27T19:28:28.321Z,99994.77
2017-12-27T19:30:57.464Z,99992.24
2017-12-27T19:33:26.624Z,99985.89
2017-12-27T19:35:55.698Z,99976.63
2017-12-27T19:38:24.843Z,99977.49
2017-12-27T19:40:54.005Z,99974.57
2017-12-27T19:43:22.933Z,99970.33
2017-12-27T19:45:52.006Z,99966.95
2017-12-27T19:48:25.642Z,99966.92
2017-12-27T19:50:54.624Z,99967.73
2017-12-27T19:53:23.686Z,99966.47
2017-12-27T19:55:53.769Z,99966.00
2017-12-27T19:58:22.736Z,99967.27
2017-12-27T20:00:51.691Z,99967.22
2017-12-27T20:05:57.417Z,99956.08
2017-12-27T20:08:26.456Z,99951.32
2017-12-27T20:10:55.441Z,99947.41
2017-12-27T20:13:24.440Z,99944.73
2017-12-27T20:15:53.382Z,99940.34
2017-12-27T20:18:24.168Z,99946.63
2017-12-27T20:20:53.275Z,99946.95
2017-12-27T20:23:22.981Z,99934.98
2017-12-27T20:25:52.993Z,99936.64
2017-12-27T20:28:22.021Z,99933.16
2017-12-27T20:30:50.985Z,99935.23
2017-12-27T20:33:23.339Z,99929.79
2017-12-27T20:35:54.364Z,99930.58
2017-12-27T20:38:23.395Z,99928.05
2017-12-27T20:40:52.586Z,99927.18
2017-12-27T20:43:21.516Z,99926.74
2017-12-27T20:45:52.348Z,99928.42
2017-12-27T20:48:21.460Z,99929.29
2017-12-27T20:50:51.394Z,99936.91
2017-12-27T20:53:21.521Z,99926.67
2017-12-27T20:55:50.485Z,99925.36
2017-12-27T20:58:19.679Z,99925.35
2017-12-27T21:00:49.454Z,99919.84
2017-12-27T21:03:18.429Z,99919.38
2017-12-27T21:05:48.279Z,99921.81
2017-12-27T21:08:18.109Z,99925.16
2017-12-27T21:10:47.019Z,99920.47
2017-12-27T21:13:16.000Z,99920.42
2017-12-27T21:15:47.056Z,99925.13
2017-12-27T21:18:15.967Z,99919.64
2017-12-27T21:20:44.926Z,99912.82
2017-12-27T21:23:13.887Z,99915.39
2017-12-27T21:25:42.818Z,99915.41
2017-12-27T21:28:13.507Z,99912.38
2017-12-27T21:30:49.505Z,99914.19
2017-12-27T21:33:20.400Z,99914.58
2017-12-27T21:35:49.598Z,99919.70
2017-12-27T21:38:19.615Z,99915.36
2017-12-27T21:40:48.714Z,99911.86
2017-12-27T21:43:18.545Z,99908.86
2017-12-27T21:45:48.357Z,99910.08
2017-12-27T21:48:23.635Z,99913.52
2017-12-27T21:50:52.655Z,99898.31
2017-12-27T21:53:21.747Z,99905.05
2017-12-27T21:55:50.798Z,99901.12
2017-12-27T21:58:25.639Z,99900.77
2017-12-27T22:01:00.463Z,99889.19
2017-12-27T22:06:06.232Z,99893.86
2017-12-27T22:08:35.272Z,99891.31
2017-12-27T22:11:04.217Z,99886.80
2017-12-27T22:13:33.318Z,99873.27
2017-12-27T22:16:02.856Z,99877.98
2017-12-27T22:18:37.957Z,99880.92
2017-12-27T22:21:09.714Z,99880.14
2017-12-27T22:23:39.532Z,99883.94
2017-12-27T22:26:08.567Z,99878.87
2017-12-27T22:28:38.309Z,99870.45
2017-12-27T22:31:08.222Z,99867.95
2017-12-27T22:33:38.141Z,99871.77
2017-12-27T22:36:09.120Z,99864.55
2017-12-27T22:38:38.816Z,99860.05
2017-12-27T22:41:09.557Z,99860.50
2017-12-27T22:43:38.680Z,99858.47
2017-12-27T22:48:44.386Z,99842.11
2017-12-27T22:51:14.371Z,99855.72
2017-12-27T22:53:44.302Z,99845.67
2017-12-27T22:56:13.483Z,99846.92
2017-12-27T22:58:42.439Z,99842.72
2017-12-27T23:01:14.822Z,99843.50
2017-12-27T23:03:44.835Z,99850.23
2017-12-27T23:06:13.782Z,99843.92
2017-12-27T23:08:44.145Z,99841.01
2017-12-27T23:11:13.179Z,99843.42
2017-12-27T23:16:16.707Z,99840.25
2017-12-27T23:18:45.755Z,99837.70
2017-12-27T23:21:14.765Z,99831.30
2017-12-27T23:23:43.839Z,99831.66
2017-12-27T23:26:12.821Z,99831.69
2017-12-27T23:28:43.093Z,99828.73
2017-12-27T23:31:12.283Z,99832.97
2017-12-27T23:33:41.235Z,99847.02
2017-12-27T23:38:44.648Z,99836.35
2017-12-27T23:41:13.852Z,99832.94
2017-12-27T23:43:47.483Z,99827.41
2017-12-27T23:46:16.650Z,99824.98
2017-12-27T23:48:49.031Z,99826.67
2017-12-27T23:51:18.066Z,99823.00
2017-12-27T23:53:47.011Z,99820.87
2017-12-27T23:56:18.875Z,99821.30
2017-12-27T23:58:47.866Z,99821.30
